Flight Track Log - Related Links

Times and Time Zones

All times are in EDT time to prevent confusion due to time zone crossing. See the EJA922 flight status page for this flight to view local times or setup timezone preferences in your user account.

Time Position Orientation Groundspeed Altitude Reporting Facility
EDT Latitude Longitude Course Direction KTS MPH feet Rate Location/Type
Wed 10:04:26 AM 38.2511 -78.3892 65° Northeast 269 310 6,200  Level Washington Center
Wed 10:05:27 AM 38.2844 -78.2978 65° Northeast 356 410 7,000 857 Climbing Washington Center
Wed 10:06:25 AM 38.2975 -78.1897 81° East 329 379 7,900 1,008 Climbing Washington Center
Wed 10:07:26 AM 38.2914 -78.0836 94° East 304 350 9,000 645 Climbing Washington Center
Wed 10:08:26 AM 38.2125 -78.0547 164° South 234 269 9,200 1,091 Climbing Washington Center
Wed 10:09:27 AM 38.1256 -78.0333 169° South 262 302 11,200 2,083 Climbing Washington Center
Wed 10:10:27 AM 38.0519 -77.9597 142° Southeast 312 359 13,400 2,083 Climbing Washington Center
Wed 10:11:28 AM 38.1064 -77.8400 60° Northeast 262 302 15,400 2,034 Climbing Washington Center
Wed 10:12:25 AM 38.1772 -77.7233 52° Northeast 336 387 17,400 2,136 Climbing Washington Center
Wed 10:13:26 AM 38.2397 -77.6114 55° Northeast 384 442 19,600 2,115 Climbing Washington Center
Wed 10:14:27 AM 38.3083 -77.4889 54° Northeast 409 471 21,700 2,083 Climbing Washington Center
Wed 10:15:27 AM 38.3750 -77.3636 56° Northeast 427 491 23,800 2,136 Climbing Washington Center
Wed 10:16:25 AM 38.4456 -77.2325 55° Northeast 427 491 25,900 2,136 Climbing Washington Center
Wed 10:17:25 AM 38.5161 -77.1069 54° Northeast 432 497 28,000 1,835 Climbing Washington Center
Wed 10:18:26 AM 38.5886 -76.9756 55° Northeast 438 504 29,600 1,475 Climbing Washington Center
Wed 10:19:27 AM 38.6672 -76.8386 54° Northeast 452 520 31,000 706 Climbing Washington Center
Wed 10:20:25 AM 38.7478 -76.6908 55° Northeast 487 560 31,000  Level Washington Center
Wed 10:21:26 AM 38.8325 -76.5350 55° Northeast 516 594 31,000  Level Washington Center
Wed 10:22:27 AM 38.9233 -76.3708 55° Northeast 542 624 31,000  Level Washington Center
Wed 10:23:27 AM 39.0119 -76.2086 55° Northeast 550 633 31,000  Level Washington Center
Wed 10:24:27 AM 39.1128 -76.0278 54° Northeast 557 641 31,000  Level Washington Center
Wed 10:25:25 AM 39.2089 -75.8647 53° Northeast 557 641 31,000  Level Washington Center
Wed 10:26:25 AM 39.3197 -75.7150 46° Northeast 563 648 31,000  Level Washington Center
Wed 10:27:26 AM 39.4303 -75.5728 45° Northeast 563 648 31,000  Level Washington Center
Wed 10:28:27 AM 39.5383 -75.4328 45° Northeast 557 641 31,000  Level Washington Center
Wed 10:29:27 AM 39.6464 -75.2925 45° Northeast 547 629 31,000  Level Washington Center
Wed 10:30:43 AM 39.7733 -75.1058 48° Northeast 534 615 31,000  Level New York Center
Wed 10:31:42 AM 39.8722 -74.9661 47° Northeast 534 615 31,000  Level New York Center
Wed 10:32:42 AM 39.9753 -74.8206 47° Northeast 534 615 31,000  Level New York Center
Wed 10:33:42 AM 40.0703 -74.6578 53° Northeast 556 640 31,000  Level New York Center
Wed 10:34:42 AM 40.1678 -74.4814 54° Northeast 570 656 31,000  Level New York Center
Wed 10:35:44 AM 40.2606 -74.3067 55° Northeast 591 680 31,000  Level New York Center
Wed 10:36:45 AM 40.3556 -74.1292 55° Northeast 591 680 31,000 -203 Level New York Center
Wed 10:37:42 AM 40.4500 -73.9511 55° Northeast 591 680 30,600 -1,780 Descending New York Center
Wed 10:38:43 AM 40.5442 -73.7833 54° Northeast 591 680 27,500 -2,203 Descending New York Center
Wed 10:41:09 AM 40.7394 -73.4017 56° Northeast 548 631 23,000 -1,311 Descending Boston Center
Wed 10:42:09 AM 40.8408 -73.2439 50° Northeast 518 596 23,000 -700 Level Boston Center
Wed 10:43:09 AM 40.9436 -73.1297 40° Northeast 490 564 21,600 -1,900 Descending Boston Center
Wed 10:44:09 AM 41.0486 -73.0097 41° Northeast 490 564 19,200 -2,250 Descending Boston Center
Wed 10:45:09 AM 41.1469 -72.8922 42° Northeast 485 558 17,100 -2,050 Descending Boston Center
Wed 10:46:09 AM 41.2411 -72.7825 41° Northeast 464 534 15,100 -1,050 Descending Boston Center
Wed 10:47:09 AM 41.3311 -72.6917 37° Northeast 452 520 15,000 -50 Descending Boston Center
Wed 10:48:09 AM 41.4583 -72.6311 20° North 441 507 15,000  Level Boston Center
Wed 10:49:09 AM 41.5519 -72.5872 19° North 441 507 15,000 -270 Level Boston Center
Wed 10:50:00 AM 41.6708 -72.5150 24° Northeast 440 506 14,500 -1,150 Descending Boston Center
Wed 10:51:09 AM 41.7711 -72.4067 39° Northeast 431 496 12,700 -1,657 Descending Boston Center
Wed 10:52:14 AM 41.8814 -72.2894 38° Northeast 424 488 10,800 -1,429 Descending Boston Center
Wed 10:53:15 AM 41.9500 -72.2028 43° Northeast 306 352 9,700 -1,426 Descending Boston Center
Wed 10:54:16 AM 42.0186 -72.1439 33° Northeast 293 337 7,900 -1,033 Descending Boston Center
Wed 10:55:17 AM 42.0831 -72.0708 40° Northeast 297 342 7,600 -1,082 Descending Boston Center
Wed 10:56:18 AM 42.1453 -72.0006 40° Northeast 298 343 5,700 -1,688 Descending Boston Center
Wed 10:56:21 AM 42.1453 -72.0006 40° Northeast 290 334 5,800 -667 Climbing Boston Center
Wed 10:57:21 AM 42.2117 -71.9244 40° Northeast 285 328 5,000 -400 Descending Boston Center
Wed 10:58:21 AM 42.2675 -71.8539 43° Northeast 290 334 5,000  Level Boston Center
Wed 10:59:21 AM 42.3256 -71.7661 48° Northeast 285 328 5,000  Level Boston Center
Wed 11:00:21 AM 42.3603 -71.6731 63° Northeast 285 328 5,000 -450 Level Boston Center
Wed 11:01:21 AM 42.4014 -71.5967 54° Northeast 279 321 4,100 -812 Descending Boston Center
Wed 11:02:34 AM 42.4500 -71.4833 60° Northeast 280 322 3,200 -902 Descending KA90
Wed 11:03:34 AM 42.5000 -71.4000 51° Northeast 270 311 2,100 -700 Descending KA90
Wed 11:04:34 AM 42.5167 -71.3167 75° East 224 258 1,800 -190 Descending KA90
Wed 11:05:40 AM 42.5000 -71.2333 105° East 194 223 1,700 -238 Descending KA90
Wed 11:06:40 AM 42.4667 -71.2167 160° South 147 169 1,300 -600 Descending KA90
Wed 11:07:40 AM 42.4667 -71.2500 270° West 131 151 500 -800 Descending KA90
Wed 11:10:00 AM 42.4667 -71.2833 228° Southwest  Level FlightAware Approximate

Login

Don't have an account? Register now (free) for customized features, flight alerts, and more!